METAR AND TAF INFORMATION
METAR FOR FAOB
ADDS - METARS form results

(0740 UTC 25 August 2019)
Data provider http://aviationweather.gov/metar/data/
 
METAR text: FAOB 250700Z AUTO 35010KT //// // ////// 17/10 Q1018
Conditions at: FAOB (OVERBERG , ZA) observed 0700 UTC 25 August 2019
Temperature: 17.0°C (63°F)
Dewpoint: 10.0°C (50°F) [RH = 63%]
Pressure (altimeter): 30.06 inches Hg (1018.0 mb)
Winds: from the N (350 degrees) at 12 MPH (10 knots; 5.1 m/s)
Visibility: missing
Ceiling: unknown
Clouds: missing
Weather: no significant weather observed at this time

 AIRPORT MAP

 RUNWAY INFORMATION
Runway 10 Runway length 6926 ft Runway width 131 ft
Runway elevation 52 ft Runway displaced threshold 0 ft Runway heading 75
Runway 28 Runway length 6926 ft Runway width 131 ft
Runway elevation 45 ft Runway displaced threshold 0 ft Runway heading 255
Runway 17 Runway length 10220 ft Runway width 151 ft
Runway elevation 52 ft Runway displaced threshold 0 ft Runway heading 145
Runway 35 Runway length 10220 ft Runway width 151 ft
Runway elevation 37 ft Runway displaced threshold 0 ft Runway heading 325

 AIRPORT FREQUENCIES
Type APP Name APP Frequency 119.8 MHZ
Type GND Name GND Frequency 119.8 MHZ
Type TWR Name TWR Frequency 119.8 MHZ

 AIRPORT NEAR NAVIGATION AIDS
Type NDB Name Overberg Frequency 428 KHZ
Type VORTAC Name Overberg Frequency 115400 KHZ



The South Africal Virtual Air Force